East Bangor, Pennsylvania
Current Conditions -  °F | °C
As of 3:51 PM on Sunday 23 Nov 2014 (Local Time) from KABE Reporting Station
Clear Clear  
Wind Chill: 56°   Ceiling: Unl
Heat Index: 56°   Visibility: 10mi
Dew Point: 25°   Wind: 8mph
Humidity: 30%   Direction: 160°SSE
Pressure: 30.1"   Gusts: NA
Location:  40.8463°N, 75.1731°W
Report Text: KABE 232051Z 16007KT 10SM CLR 13/M04 A3010 RMK AO2 SLP195 T01331039 56010
Loading
Personal Weather Stations






























Interactive Weather Map New forecast layout! Learn more

10-Day Weather Forecast

Advertisements
Track Severe Weather on mobile